Time;durP1;ratioP1;P1;durP2;ratioP2;P2;SDS_P1;SDS_P2;PMS_P1;PMS_P2;Temp;Humidity;BMP_temperature;BMP_pressure;BME280_temperature;BME280_humidity;BME280_pressure;Samples;Min_cycle;Max_cycle;Signal;HPM_P1;HPM_P2
2023/01/31 00:01:26;;;;;;;29.20;6.13;;;;;;;;;;5042826;28;20362;-76
2023/01/31 00:03:52;;;;;;;27.00;4.90;;;;;;;;;;5029434;28;20025;-76
2023/01/31 00:06:22;;;;;;;27.20;3.70;;;;;;;;;;5038981;28;20044;-76
2023/01/31 00:08:49;;;;;;;31.63;5.13;;;;;;;;;;5040851;28;20029;-76
2023/01/31 00:11:16;;;;;;;29.80;5.53;;;;;;;;;;5024164;28;20029;-76
2023/01/31 00:13:43;;;;;;;28.50;4.90;;;;;;;;;;5040584;28;20061;-77
2023/01/31 00:16:10;;;;;;;24.10;4.20;;;;;;;;;;5041030;28;20026;-75
2023/01/31 00:18:37;;;;;;;20.93;4.63;;;;;;;;;;5040526;28;20115;-76
2023/01/31 00:21:07;;;;;;;21.40;3.77;;;;;;;;;;5043303;28;20033;-76
2023/01/31 00:23:33;;;;;;;32.60;4.80;;;;;;;;;;5025188;28;20181;-75
2023/01/31 00:26:11;;;;;;;22.53;3.63;;;;;;;;;;5043897;28;20442;-76
2023/01/31 00:28:38;;;;;;;28.20;5.03;;;;;;;;;;5039557;28;20087;-76
2023/01/31 00:31:04;;;;;;;24.63;4.30;;;;;;;;;;5042041;28;20037;-75
2023/01/31 00:33:30;;;;;;;21.57;4.27;;;;;;;;;;5039966;28;20033;-76
2023/01/31 00:35:56;;;;;;;28.37;4.83;;;;;;;;;;5041937;28;20087;-75
2023/01/31 00:38:22;;;;;;;26.27;5.07;;;;;;;;;;5039562;28;20454;-76
2023/01/31 00:40:54;;;;;;;25.43;5.27;;;;;;;;;;5042038;28;20152;-75
2023/01/31 00:43:21;;;;;;;18.17;3.97;;;;;;;;;;5042021;28;20071;-75
2023/01/31 00:45:47;;;;;;;30.13;5.43;;;;;;;;;;5040549;28;20057;-76
2023/01/31 00:48:16;;;;;;;37.50;5.60;;;;;;;;;;5039513;28;20493;-75
2023/01/31 00:50:42;;;;;;;30.53;5.27;;;;;;;;;;5023123;28;20025;-76
2023/01/31 00:53:08;;;;;;;25.67;3.67;;;;;;;;;;5039243;28;20034;-75
2023/01/31 00:55:34;;;;;;;28.73;4.67;;;;;;;;;;5040656;28;20088;-76
2023/01/31 00:58:00;;;;;;;24.37;3.73;;;;;;;;;;5040814;28;20036;-76
2023/01/31 01:00:26;;;;;;;21.47;4.43;;;;;;;;;;5041758;28;20026;-76
2023/01/31 01:02:54;;;;;;;21.40;4.10;;;;;;;;;;5041418;28;20048;-74
2023/01/31 01:05:20;;;;;;;30.07;4.27;;;;;;;;;;5039454;28;20030;-76
2023/01/31 01:07:46;;;;;;;23.73;4.47;;;;;;;;;;5039099;28;20030;-75
2023/01/31 01:10:12;;;;;;;26.27;4.70;;;;;;;;;;5023982;28;20034;-76
2023/01/31 01:12:38;;;;;;;22.83;4.83;;;;;;;;;;5040186;28;20029;-76
2023/01/31 01:15:05;;;;;;;27.23;4.40;;;;;;;;;;5024777;28;20090;-75
2023/01/31 01:17:31;;;;;;;25.70;3.90;;;;;;;;;;5040757;28;20045;-76
2023/01/31 01:20:02;;;;;;;26.70;5.50;;;;;;;;;;5040570;28;20087;-76
2023/01/31 01:22:30;;;;;;;26.57;4.03;;;;;;;;;;5041079;28;20064;-76
2023/01/31 01:24:56;;;;;;;19.10;3.70;;;;;;;;;;5022839;28;20120;-75
2023/01/31 01:27:22;;;;;;;24.70;4.17;;;;;;;;;;5044344;28;20063;-77
2023/01/31 01:29:48;;;;;;;22.40;4.80;;;;;;;;;;5023741;28;20022;-76
2023/01/31 01:32:14;;;;;;;27.47;5.23;;;;;;;;;;5025971;28;20053;-76
2023/01/31 01:34:40;;;;;;;28.73;5.47;;;;;;;;;;5041591;28;20026;-76
2023/01/31 01:37:10;;;;;;;25.83;4.50;;;;;;;;;;5039058;28;20044;-75
2023/01/31 01:39:37;;;;;;;21.83;4.80;;;;;;;;;;5024982;28;20018;-76
2023/01/31 01:42:04;;;;;;;32.93;4.33;;;;;;;;;;5040037;28;20022;-76
2023/01/31 01:44:49;;;;;;;33.53;6.10;;;;;;;;;;5040206;28;20033;-76
2023/01/31 01:47:24;;;;;;;25.10;5.73;;;;;;;;;;5040172;28;20117;-76
2023/01/31 01:49:55;;;;;;;22.37;4.10;;;;;;;;;;5040813;28;20167;-76
2023/01/31 01:52:22;;;;;;;26.67;4.87;;;;;;;;;;5038641;28;20072;-76
2023/01/31 01:54:58;;;;;;;15.73;4.33;;;;;;;;;;5043231;28;20111;-75
2023/01/31 01:57:33;;;;;;;26.63;4.07;;;;;;;;;;5028699;28;20116;-77
2023/01/31 02:00:19;;;;;;;15.47;3.30;;;;;;;;;;5043191;28;20069;-77
2023/01/31 02:02:49;;;;;;;20.63;3.27;;;;;;;;;;5028380;28;20121;-77
2023/01/31 02:05:17;;;;;;;27.77;4.17;;;;;;;;;;5043862;28;20132;-76
2023/01/31 02:07:45;;;;;;;29.80;5.53;;;;;;;;;;5042439;28;20484;-76
2023/01/31 02:10:38;;;;;;;22.13;4.53;;;;;;;;;;5027206;28;20026;-77
2023/01/31 02:13:04;;;;;;;19.97;3.70;;;;;;;;;;5022294;28;20465;-76
2023/01/31 02:15:30;;;;;;;24.33;4.27;;;;;;;;;;5043887;28;20586;-76
2023/01/31 02:17:57;;;;;;;28.80;4.23;;;;;;;;;;5026482;28;20038;-76
2023/01/31 02:20:23;;;;;;;35.77;6.80;;;;;;;;;;5045295;28;20550;-76
2023/01/31 02:23:00;;;;;;;25.97;4.23;;;;;;;;;;5043204;28;20749;-77
2023/01/31 02:25:34;;;;;;;19.20;3.97;;;;;;;;;;5045384;28;20029;-77
2023/01/31 02:28:00;;;;;;;28.97;4.27;;;;;;;;;;5042645;28;20109;-77
2023/01/31 02:30:26;;;;;;;30.27;4.90;;;;;;;;;;5042548;28;20108;-76
2023/01/31 02:32:52;;;;;;;28.70;4.07;;;;;;;;;;5043062;28;20033;-76
2023/01/31 02:35:18;;;;;;;33.60;4.90;;;;;;;;;;5026799;28;20121;-77
2023/01/31 02:37:52;;;;;;;21.93;4.37;;;;;;;;;;5029076;28;20469;-75
2023/01/31 02:40:24;;;;;;;20.03;4.13;;;;;;;;;;5045674;28;20041;-77
2023/01/31 02:43:04;;;;;;;24.92;4.40;;;;;;;;;;5044188;28;20082;-76
2023/01/31 02:45:30;;;;;;;29.53;5.23;;;;;;;;;;5035888;28;20402;-77
2023/01/31 02:47:56;;;;;;;25.20;3.60;;;;;;;;;;5052849;28;20017;-77
2023/01/31 02:50:24;;;;;;;22.83;5.07;;;;;;;;;;5038321;28;20343;-77
2023/01/31 02:53:10;;;;;;;18.33;3.77;;;;;;;;;;5036209;28;20033;-76
2023/01/31 02:58:32;;;;;;;21.23;4.27;;;;;;;;;;5053832;28;20102;-77
2023/01/31 03:01:02;;;;;;;31.03;5.00;;;;;;;;;;5035537;28;20110;-77
2023/01/31 03:03:34;;;;;;;20.77;3.47;;;;;;;;;;5035809;28;20029;-76
2023/01/31 03:06:00;;;;;;;;;;;;;;;;;;5022831;28;20040;-77
2023/01/31 03:08:26;;;;;;;27.40;4.37;;;;;;;;;;5032141;28;20246;-76
2023/01/31 03:11:00;;;;;;;25.67;4.20;;;;;;;;;;5030471;28;20044;-77
2023/01/31 03:13:26;;;;;;;30.17;5.87;;;;;;;;;;5072272;28;20017;-76
2023/01/31 03:18:51;;;;;;;36.83;4.67;;;;;;;;;;5036761;28;20671;-76
2023/01/31 03:21:18;;;;;;;33.03;4.57;;;;;;;;;;5035228;28;20033;-77
2023/01/31 03:23:47;;;;;;;22.63;5.33;;;;;;;;;;5035544;28;20036;-77
2023/01/31 03:26:16;;;;;;;24.43;3.87;;;;;;;;;;5035408;28;20034;-77
2023/01/31 03:28:43;;;;;;;31.10;4.43;;;;;;;;;;5035215;28;20030;-77
2023/01/31 03:31:12;;;;;;;23.47;4.93;;;;;;;;;;5036198;28;20041;-76
2023/01/31 03:33:39;;;;;;;34.10;4.80;;;;;;;;;;5034955;28;20108;-76
2023/01/31 03:36:13;;;;;;;25.33;4.93;;;;;;;;;;5034996;28;20036;-77
2023/01/31 03:38:56;;;;;;;27.23;4.40;;;;;;;;;;5036012;28;20264;-76
2023/01/31 03:41:30;;;;;;;23.15;4.82;;;;;;;;;;5036171;28;20291;-77
2023/01/31 03:44:05;;;;;;;20.00;4.50;;;;;;;;;;5058313;28;20044;-77
2023/01/31 03:46:34;;;;;;;25.77;4.60;;;;;;;;;;5038697;28;20330;-77
2023/01/31 03:49:02;;;;;;;23.30;5.13;;;;;;;;;;5065762;28;20302;-75
2023/01/31 03:51:30;;;;;;;21.67;4.87;;;;;;;;;;5063893;28;20354;-77
2023/01/31 03:54:08;;;;;;;33.10;4.57;;;;;;;;;;5055709;28;20251;-77
2023/01/31 03:56:40;;;;;;;25.03;4.73;;;;;;;;;;5053970;28;20257;-77
2023/01/31 03:59:08;;;;;;;24.70;5.63;;;;;;;;;;5033635;28;20291;-77
2023/01/31 04:01:36;;;;;;;27.07;5.13;;;;;;;;;;5034982;28;20588;-77
2023/01/31 04:04:11;;;;;;;31.10;5.50;;;;;;;;;;5038042;28;20264;-76
2023/01/31 04:06:37;;;;;;;26.33;4.97;;;;;;;;;;5052537;28;20299;-77
2023/01/31 04:09:03;;;;;;;42.50;6.00;;;;;;;;;;5035236;28;20284;-76
2023/01/31 04:11:30;;;;;;;29.20;5.87;;;;;;;;;;5049079;28;20268;-77
2023/01/31 04:13:56;;;;;;;38.07;5.50;;;;;;;;;;5071031;28;20262;-75
2023/01/31 04:16:22;;;;;;;29.27;6.00;;;;;;;;;;5057900;28;20326;-77
2023/01/31 04:18:48;;;;;;;30.10;5.33;;;;;;;;;;5044488;28;20295;-76
2023/01/31 04:21:14;;;;;;;29.87;5.43;;;;;;;;;;5039648;28;20280;-76
2023/01/31 04:23:42;;;;;;;29.43;5.67;;;;;;;;;;5025516;28;20033;-76
2023/01/31 04:26:08;;;;;;;36.90;6.00;;;;;;;;;;5022916;28;20279;-77
2023/01/31 04:28:34;;;;;;;22.13;6.00;;;;;;;;;;5042325;28;20299;-76
2023/01/31 04:31:00;;;;;;;26.23;6.00;;;;;;;;;;5038371;28;20071;-76
2023/01/31 04:33:26;;;;;;;41.17;7.30;;;;;;;;;;5041209;28;20542;-76
2023/01/31 04:35:52;;;;;;;33.30;8.03;;;;;;;;;;5038160;28;20034;-76
2023/01/31 04:38:18;;;;;;;33.80;7.73;;;;;;;;;;5024780;28;20288;-76
2023/01/31 04:40:44;;;;;;;34.77;7.13;;;;;;;;;;5041939;28;20334;-76
2023/01/31 04:43:11;;;;;;;36.07;8.27;;;;;;;;;;5041609;28;20060;-76
2023/01/31 04:45:37;;;;;;;34.10;8.20;;;;;;;;;;5041647;28;21731;-77
2023/01/31 04:48:03;;;;;;;38.90;8.00;;;;;;;;;;5042823;28;20346;-76
2023/01/31 04:50:29;;;;;;;44.13;8.57;;;;;;;;;;5039657;28;20287;-78
2023/01/31 04:52:55;;;;;;;42.20;9.57;;;;;;;;;;5045377;28;20272;-76
2023/01/31 04:55:21;;;;;;;36.33;7.53;;;;;;;;;;5039823;28;20624;-76
2023/01/31 04:57:47;;;;;;;37.73;10.83;;;;;;;;;;5039697;28;20280;-75
2023/01/31 05:00:14;;;;;;;31.73;8.20;;;;;;;;;;5028239;28;20267;-77
2023/01/31 05:02:40;;;;;;;32.87;7.50;;;;;;;;;;5043697;28;20026;-76
2023/01/31 05:05:06;;;;;;;41.07;8.93;;;;;;;;;;5040844;28;20772;-76
2023/01/31 05:07:32;;;;;;;30.13;8.50;;;;;;;;;;5041102;28;20533;-77
2023/01/31 05:09:58;;;;;;;34.33;8.93;;;;;;;;;;5026444;28;20377;-77
2023/01/31 05:12:25;;;;;;;32.10;8.00;;;;;;;;;;5038879;28;20171;-77
2023/01/31 05:14:51;;;;;;;49.33;8.87;;;;;;;;;;5042089;28;20287;-76
2023/01/31 05:17:24;;;;;;;38.27;9.57;;;;;;;;;;5040919;28;20295;-77
2023/01/31 05:19:50;;;;;;;36.80;8.20;;;;;;;;;;5041141;28;20034;-77
2023/01/31 05:22:16;;;;;;;26.43;7.63;;;;;;;;;;5041552;28;20323;-76
2023/01/31 05:24:42;;;;;;;29.60;8.13;;;;;;;;;;5042082;28;20049;-77
2023/01/31 05:27:09;;;;;;;40.43;10.33;;;;;;;;;;5040866;28;20284;-77
2023/01/31 05:29:35;;;;;;;38.20;9.67;;;;;;;;;;5025644;28;20030;-76
2023/01/31 05:32:04;;;;;;;47.90;9.93;;;;;;;;;;5027132;28;20369;-76
2023/01/31 05:34:32;;;;;;;49.93;9.63;;;;;;;;;;5043656;28;20402;-76
2023/01/31 05:36:58;;;;;;;47.40;10.43;;;;;;;;;;5044721;28;20373;-76
2023/01/31 05:39:24;;;;;;;36.00;8.70;;;;;;;;;;5044646;28;20775;-76
2023/01/31 05:41:50;;;;;;;34.07;8.83;;;;;;;;;;5026900;28;20029;-77
2023/01/31 05:44:16;;;;;;;30.23;10.27;;;;;;;;;;5043877;28;20126;-77
2023/01/31 05:46:42;;;;;;;32.97;10.17;;;;;;;;;;5026466;28;20083;-77
2023/01/31 05:49:08;;;;;;;36.33;9.77;;;;;;;;;;5042590;28;20036;-76
2023/01/31 05:51:39;;;;;;;36.40;9.47;;;;;;;;;;5045481;28;20505;-77
2023/01/31 05:54:06;;;;;;;30.93;8.90;;;;;;;;;;5045290;28;20049;-76
2023/01/31 05:56:32;;;;;;;46.60;9.23;;;;;;;;;;5045655;28;20044;-77
2023/01/31 05:58:58;;;;;;;34.13;8.40;;;;;;;;;;5026871;28;20426;-77
2023/01/31 06:01:25;;;;;;;35.80;7.53;;;;;;;;;;5043491;28;20065;-77
2023/01/31 06:03:54;;;;;;;36.70;8.60;;;;;;;;;;5045813;28;20033;-77
2023/01/31 06:06:22;;;;;;;37.43;9.00;;;;;;;;;;5045295;28;20037;-77
2023/01/31 06:08:48;;;;;;;41.80;9.47;;;;;;;;;;5048281;28;20033;-76
2023/01/31 06:11:14;;;;;;;41.33;9.43;;;;;;;;;;5045105;28;20714;-77
2023/01/31 06:13:44;;;;;;;30.30;8.40;;;;;;;;;;5028284;28;20037;-76
2023/01/31 06:16:10;;;;;;;38.17;7.93;;;;;;;;;;5043408;28;20057;-77
2023/01/31 06:18:36;;;;;;;29.83;8.70;;;;;;;;;;5043478;28;20087;-76
2023/01/31 06:21:02;;;;;;;34.90;8.20;;;;;;;;;;5042098;28;20033;-76
2023/01/31 06:23:28;;;;;;;25.03;6.93;;;;;;;;;;5025858;28;20060;-76
2023/01/31 06:25:55;;;;;;;29.83;7.43;;;;;;;;;;5043190;28;20096;-76
2023/01/31 06:28:21;;;;;;;30.77;6.87;;;;;;;;;;5026802;28;20037;-76
2023/01/31 06:30:47;;;;;;;26.80;6.97;;;;;;;;;;5043240;28;20129;-76
2023/01/31 06:33:14;;;;;;;28.10;6.73;;;;;;;;;;5042734;28;20112;-76
2023/01/31 06:35:40;;;;;;;31.43;6.77;;;;;;;;;;5042767;28;20030;-76
2023/01/31 06:38:06;;;;;;;43.20;9.03;;;;;;;;;;5042312;28;20052;-77
2023/01/31 06:40:33;;;;;;;32.97;7.97;;;;;;;;;;5042091;28;20034;-77
2023/01/31 06:42:59;;;;;;;25.47;5.57;;;;;;;;;;5041001;28;20073;-77
2023/01/31 06:45:25;;;;;;;21.80;5.13;;;;;;;;;;5025750;28;20041;-77
2023/01/31 06:47:51;;;;;;;26.77;6.00;;;;;;;;;;5044026;28;20094;-77
2023/01/31 06:50:17;;;;;;;29.37;7.23;;;;;;;;;;5040416;28;20044;-76
2023/01/31 06:52:45;;;;;;;22.57;5.73;;;;;;;;;;5043963;28;20060;-75
2023/01/31 06:55:11;;;;;;;24.53;5.63;;;;;;;;;;5041810;28;20170;-77
2023/01/31 06:57:45;;;;;;;20.27;4.83;;;;;;;;;;5045507;28;20450;-77
2023/01/31 07:00:11;;;;;;;34.40;6.77;;;;;;;;;;5028387;28;20846;-77
2023/01/31 07:02:37;;;;;;;22.93;5.83;;;;;;;;;;5025853;28;20037;-75
2023/01/31 07:05:03;;;;;;;30.40;5.60;;;;;;;;;;5040601;28;20048;-76
2023/01/31 07:07:29;;;;;;;21.50;4.83;;;;;;;;;;5026765;28;20033;-76
2023/01/31 07:09:55;;;;;;;25.50;5.23;;;;;;;;;;5040528;28;20052;-77
2023/01/31 07:12:23;;;;;;;22.93;4.87;;;;;;;;;;5040620;28;20034;-77
2023/01/31 07:14:52;;;;;;;22.03;5.07;;;;;;;;;;5042695;28;20053;-76
2023/01/31 07:17:20;;;;;;;22.70;4.73;;;;;;;;;;5046505;28;21776;-75
2023/01/31 07:19:48;;;;;;;21.90;4.50;;;;;;;;;;5038804;28;20037;-76
2023/01/31 07:22:14;;;;;;;26.80;5.37;;;;;;;;;;5042533;28;20108;-75
2023/01/31 07:24:42;;;;;;;15.40;4.47;;;;;;;;;;5039783;28;20534;-76
2023/01/31 07:27:09;;;;;;;21.43;5.10;;;;;;;;;;5043256;28;20034;-77
2023/01/31 07:29:37;;;;;;;19.53;5.83;;;;;;;;;;5039002;28;20045;-76
2023/01/31 07:32:04;;;;;;;21.07;4.43;;;;;;;;;;5041644;28;20044;-78
2023/01/31 07:34:30;;;;;;;29.07;4.87;;;;;;;;;;5042197;28;20079;-77
2023/01/31 07:36:56;;;;;;;24.67;4.87;;;;;;;;;;5044237;28;20025;-76
2023/01/31 07:39:22;;;;;;;27.57;5.77;;;;;;;;;;5042449;28;20041;-76
2023/01/31 07:41:48;;;;;;;26.93;4.57;;;;;;;;;;5024380;28;20042;-76
2023/01/31 07:44:14;;;;;;;23.33;4.23;;;;;;;;;;5043112;28;20041;-75
2023/01/31 07:46:40;;;;;;;19.93;4.80;;;;;;;;;;5041056;28;20098;-76
2023/01/31 07:49:08;;;;;;;19.33;5.33;;;;;;;;;;5041211;28;20029;-76
2023/01/31 07:51:35;;;;;;;30.33;4.93;;;;;;;;;;5040680;28;20112;-77
2023/01/31 07:54:01;;;;;;;15.10;4.17;;;;;;;;;;5041604;28;20029;-76
2023/01/31 07:56:27;;;;;;;19.63;3.37;;;;;;;;;;5040560;28;20052;-76
2023/01/31 07:58:53;;;;;;;22.10;4.27;;;;;;;;;;5041675;28;20037;-76
2023/01/31 08:04:06;;;;;;;18.07;3.87;;;;;;;;;;5026447;28;20116;-77
2023/01/31 08:06:32;;;;;;;19.77;4.20;;;;;;;;;;5041297;28;20045;-76
2023/01/31 08:08:59;;;;;;;26.13;4.60;;;;;;;;;;5041321;28;20093;-76
2023/01/31 08:11:26;;;;;;;24.33;3.67;;;;;;;;;;5041288;28;20505;-76
2023/01/31 08:13:52;;;;;;;22.70;4.10;;;;;;;;;;5041598;28;20090;-75
2023/01/31 08:16:19;;;;;;;21.20;3.33;;;;;;;;;;5039286;28;20260;-77
2023/01/31 08:18:45;;;;;;;17.67;3.73;;;;;;;;;;5043084;28;20037;-76
2023/01/31 08:21:15;;;;;;;16.43;4.17;;;;;;;;;;5040410;28;20033;-77
2023/01/31 08:23:41;;;;;;;18.67;4.07;;;;;;;;;;5044102;28;20052;-76
2023/01/31 08:26:15;;;;;;;21.07;3.67;;;;;;;;;;5025775;28;20029;-75
2023/01/31 08:28:42;;;;;;;13.43;3.57;;;;;;;;;;5030669;28;20087;-76
2023/01/31 08:31:12;;;;;;;17.93;4.13;;;;;;;;;;5026178;28;20056;-76
2023/01/31 08:33:38;;;;;;;15.63;2.93;;;;;;;;;;5040163;28;20033;-76
2023/01/31 08:36:08;;;;;;;21.47;4.10;;;;;;;;;;5040370;28;20041;-76
2023/01/31 08:38:34;;;;;;;22.73;4.27;;;;;;;;;;5024600;28;20393;-76
2023/01/31 08:41:02;;;;;;;19.97;4.23;;;;;;;;;;5041686;28;20102;-77
2023/01/31 08:43:31;;;;;;;19.87;3.83;;;;;;;;;;5045727;28;20045;-76
2023/01/31 08:45:57;;;;;;;16.03;3.80;;;;;;;;;;5070803;28;20444;-77
2023/01/31 08:48:23;;;;;;;20.40;4.20;;;;;;;;;;5062038;28;20037;-77
2023/01/31 08:50:49;;;;;;;27.30;4.07;;;;;;;;;;5050254;28;20025;-77
2023/01/31 08:53:15;;;;;;;19.30;3.00;;;;;;;;;;5033570;28;20430;-77
2023/01/31 08:55:41;;;;;;;20.50;4.00;;;;;;;;;;5024634;28;20029;-77
2023/01/31 08:58:10;;;;;;;27.03;4.23;;;;;;;;;;5032760;28;20034;-77
2023/01/31 09:00:38;;;;;;;18.60;3.60;;;;;;;;;;5034581;28;20034;-77
2023/01/31 09:03:04;;;;;;;22.23;4.07;;;;;;;;;;5034172;28;20030;-77
2023/01/31 09:05:31;;;;;;;18.50;4.17;;;;;;;;;;5037633;28;20029;-77
2023/01/31 09:07:58;;;;;;;18.83;4.17;;;;;;;;;;5038547;28;20052;-77
2023/01/31 09:10:24;;;;;;;15.10;3.67;;;;;;;;;;5044666;28;20133;-77
2023/01/31 09:12:50;;;;;;;24.13;4.43;;;;;;;;;;5054285;28;20032;-77
2023/01/31 09:15:17;;;;;;;24.97;5.07;;;;;;;;;;5033371;28;20021;-77
2023/01/31 09:17:43;;;;;;;18.37;3.63;;;;;;;;;;5037845;28;20025;-77
2023/01/31 09:20:09;;;;;;;23.07;3.83;;;;;;;;;;5037580;28;20443;-76
2023/01/31 09:22:35;;;;;;;21.23;4.20;;;;;;;;;;5037469;28;20552;-77
2023/01/31 09:25:02;;;;;;;18.80;4.07;;;;;;;;;;5038343;28;20365;-76
2023/01/31 09:27:28;;;;;;;14.37;3.80;;;;;;;;;;5041478;28;20059;-77
2023/01/31 09:33:05;;;;;;;14.60;3.60;;;;;;;;;;5037151;28;20030;-77
2023/01/31 09:35:31;;;;;;;20.97;3.87;;;;;;;;;;5037433;28;20315;-77
2023/01/31 09:37:57;;;;;;;18.83;3.83;;;;;;;;;;5042493;28;20494;-77
2023/01/31 09:40:25;;;;;;;20.67;4.20;;;;;;;;;;5035204;28;20029;-76
2023/01/31 09:42:52;;;;;;;21.27;4.17;;;;;;;;;;5067018;28;20346;-76
2023/01/31 09:45:34;;;;;;;17.40;3.63;;;;;;;;;;5058274;28;20036;-76
2023/01/31 09:48:00;;;;;;;27.73;4.97;;;;;;;;;;5053711;28;20029;-77
2023/01/31 09:50:40;;;;;;;18.97;4.83;;;;;;;;;;5053820;28;20132;-76
2023/01/31 09:53:09;;;;;;;18.50;3.87;;;;;;;;;;5039695;28;20021;-77
2023/01/31 09:55:41;;;;;;;22.33;4.00;;;;;;;;;;5036832;28;20346;-76
2023/01/31 09:58:23;;;;;;;15.03;3.67;;;;;;;;;;5037802;28;20357;-76
2023/01/31 10:01:12;;;;;;;29.48;4.97;;;;;;;;;;5039843;28;20095;-77
2023/01/31 10:03:46;;;;;;;16.67;3.33;;;;;;;;;;5038613;28;20041;-76
2023/01/31 10:06:12;;;;;;;17.73;4.00;;;;;;;;;;5036758;28;20040;-76
2023/01/31 10:08:45;;;;;;;27.10;4.63;;;;;;;;;;5053299;28;20037;-77
2023/01/31 10:11:16;;;;;;;20.80;4.97;;;;;;;;;;5057450;28;20036;-76
2023/01/31 10:13:53;;;;;;;18.73;4.37;;;;;;;;;;5057595;28;20371;-77
2023/01/31 10:16:35;;;;;;;22.60;3.80;;;;;;;;;;5041595;28;20036;-77
2023/01/31 10:19:07;;;;;;;18.47;3.70;;;;;;;;;;5055938;28;20038;-75
2023/01/31 10:21:40;;;;;;;17.42;3.42;;;;;;;;;;5024039;28;20057;-76
2023/01/31 10:24:13;;;;;;;17.63;4.47;;;;;;;;;;5043484;28;20033;-76
2023/01/31 10:26:41;;;;;;;24.00;4.90;;;;;;;;;;5043776;28;20040;-76
2023/01/31 10:29:21;;;;;;;22.80;3.30;;;;;;;;;;5027866;28;20039;-76
2023/01/31 10:31:50;;;;;;;24.97;4.47;;;;;;;;;;5041894;28;20084;-76
2023/01/31 10:34:20;;;;;;;16.57;4.20;;;;;;;;;;5027701;28;20029;-76
2023/01/31 10:36:50;;;;;;;19.83;4.30;;;;;;;;;;5044849;28;20029;-76
2023/01/31 10:39:31;;;;;;;17.57;3.87;;;;;;;;;;5042114;28;20021;-77
2023/01/31 10:41:57;;;;;;;21.43;5.20;;;;;;;;;;5041160;28;20018;-76
2023/01/31 10:44:25;;;;;;;18.80;4.00;;;;;;;;;;5041397;28;20040;-76
2023/01/31 10:46:52;;;;;;;12.57;3.20;;;;;;;;;;5043160;28;20021;-76
2023/01/31 10:49:20;;;;;;;19.03;3.83;;;;;;;;;;5026521;28;20041;-77
2023/01/31 10:51:46;;;;;;;13.63;4.07;;;;;;;;;;5025617;28;20029;-77
2023/01/31 10:54:21;;;;;;;20.33;4.30;;;;;;;;;;5043493;28;20025;-76
2023/01/31 10:56:48;;;;;;;20.80;4.57;;;;;;;;;;5041638;28;20346;-76
2023/01/31 10:59:28;;;;;;;19.60;3.73;;;;;;;;;;5042124;28;20112;-76
2023/01/31 11:01:54;;;;;;;23.17;5.20;;;;;;;;;;5026439;28;20073;-77
2023/01/31 11:04:28;;;;;;;24.80;4.70;;;;;;;;;;5042602;28;20034;-76
2023/01/31 11:06:54;;;;;;;15.67;4.40;;;;;;;;;;5041047;28;20469;-76
2023/01/31 11:09:23;;;;;;;17.00;3.47;;;;;;;;;;5041486;28;20064;-74
2023/01/31 11:11:54;;;;;;;17.53;4.53;;;;;;;;;;5042032;28;20063;-76
2023/01/31 11:14:20;;;;;;;18.93;3.73;;;;;;;;;;5041995;28;20069;-76
2023/01/31 11:16:49;;;;;;;19.33;4.30;;;;;;;;;;5041451;28;20373;-76
2023/01/31 11:19:19;;;;;;;20.53;4.27;;;;;;;;;;5040818;28;20044;-76
2023/01/31 11:21:48;;;;;;;24.07;3.97;;;;;;;;;;5041542;28;20137;-75
2023/01/31 11:24:20;;;;;;;17.17;3.90;;;;;;;;;;5042011;28;20030;-76
2023/01/31 11:26:59;;;;;;;16.98;4.65;;;;;;;;;;5039877;28;20040;-75
2023/01/31 11:29:27;;;;;;;15.43;3.90;;;;;;;;;;5027114;28;20052;-75
2023/01/31 11:31:54;;;;;;;18.40;4.00;;;;;;;;;;5028458;28;20466;-76
2023/01/31 11:34:20;;;;;;;17.53;3.47;;;;;;;;;;5041564;28;20065;-76
2023/01/31 11:36:48;;;;;;;24.57;4.83;;;;;;;;;;5024651;28;20106;-75
2023/01/31 11:39:24;;;;;;;11.20;4.17;;;;;;;;;;5040564;28;20040;-76
2023/01/31 11:41:51;;;;;;;16.53;3.93;;;;;;;;;;5042776;28;20029;-74
2023/01/31 11:44:18;;;;;;;21.03;4.63;;;;;;;;;;5042210;28;20577;-74
2023/01/31 11:47:04;;;;;;;24.37;4.63;;;;;;;;;;5041025;28;20037;-76
2023/01/31 11:49:35;;;;;;;15.17;3.63;;;;;;;;;;5027305;28;20034;-76
2023/01/31 11:52:03;;;;;;;17.67;3.87;;;;;;;;;;5024305;28;20029;-76
2023/01/31 11:54:31;;;;;;;13.27;3.80;;;;;;;;;;5024281;28;20034;-75
2023/01/31 11:56:58;;;;;;;18.67;4.27;;;;;;;;;;5044273;28;20021;-75
2023/01/31 11:59:28;;;;;;;18.27;3.67;;;;;;;;;;5039720;28;20373;-76
2023/01/31 12:01:56;;;;;;;13.23;3.03;;;;;;;;;;5040228;28;20034;-76
2023/01/31 12:04:28;;;;;;;19.43;3.87;;;;;;;;;;5024677;28;20037;-76
2023/01/31 12:07:00;;;;;;;23.52;4.18;;;;;;;;;;5025956;28;20040;-76
2023/01/31 12:09:28;;;;;;;16.27;4.70;;;;;;;;;;5040614;28;20041;-76
2023/01/31 12:11:56;;;;;;;9.73;3.00;;;;;;;;;;5041267;28;20040;-76
2023/01/31 12:14:23;;;;;;;12.90;3.57;;;;;;;;;;5039610;28;20030;-76
2023/01/31 12:16:50;;;;;;;13.67;3.57;;;;;;;;;;5039954;28;20026;-76
2023/01/31 12:19:38;;;;;;;19.03;4.13;;;;;;;;;;5040725;28;20124;-77
2023/01/31 12:22:04;;;;;;;16.40;4.70;;;;;;;;;;5039489;28;20053;-74
2023/01/31 12:24:40;;;;;;;14.60;4.40;;;;;;;;;;5040747;28;20064;-76
2023/01/31 12:27:14;;;;;;;9.20;2.87;;;;;;;;;;5041591;28;20037;-76
2023/01/31 12:29:39;;;;;;;12.70;3.03;;;;;;;;;;5025856;28;20087;-77
2023/01/31 12:32:25;;;;;;;9.67;3.43;;;;;;;;;;5041666;28;20029;-76
2023/01/31 12:34:54;;;;;;;14.67;3.53;;;;;;;;;;5024803;28;20037;-75
2023/01/31 12:37:33;;;;;;;7.77;2.87;;;;;;;;;;5039584;28;20523;-76
2023/01/31 12:40:03;;;;;;;8.70;3.20;;;;;;;;;;5029655;28;20091;-77
2023/01/31 12:42:40;;;;;;;10.67;3.20;;;;;;;;;;5023038;28;20095;-76
2023/01/31 12:45:25;;;;;;;9.80;3.30;;;;;;;;;;5023921;28;20189;-76
2023/01/31 12:47:57;;;;;;;12.23;3.30;;;;;;;;;;5038579;28;20107;-77
2023/01/31 12:50:26;;;;;;;9.65;2.90;;;;;;;;;;5042477;28;20033;-76
2023/01/31 12:53:03;;;;;;;10.50;3.37;;;;;;;;;;5040871;28;20548;-76
2023/01/31 12:55:33;;;;;;;12.57;2.87;;;;;;;;;;5042998;28;20532;-76
2023/01/31 12:58:09;;;;;;;10.00;3.70;;;;;;;;;;5039793;28;20033;-76
2023/01/31 13:00:45;;;;;;;14.47;3.57;;;;;;;;;;5040242;28;20037;-76
2023/01/31 13:03:14;;;;;;;14.40;3.07;;;;;;;;;;5039541;28;20085;-77
2023/01/31 13:05:49;;;;;;;5.37;2.43;;;;;;;;;;5039295;28;20037;-76
2023/01/31 13:08:17;;;;;;;10.03;3.33;;;;;;;;;;5039077;28;20037;-76
2023/01/31 13:10:48;;;;;;;12.93;3.53;;;;;;;;;;5039150;28;20034;-75
2023/01/31 13:13:25;;;;;;;9.30;3.53;;;;;;;;;;5023838;28;20033;-76
2023/01/31 13:15:58;;;;;;;12.33;3.90;;;;;;;;;;5039008;28;21706;-76
2023/01/31 13:18:24;;;;;;;10.57;3.42;;;;;;;;;;5038891;28;20037;-75
2023/01/31 13:21:00;;;;;;;13.37;4.07;;;;;;;;;;5040003;28;20037;-76
2023/01/31 13:23:30;;;;;;;14.23;3.80;;;;;;;;;;5038489;28;20033;-75
2023/01/31 13:26:03;;;;;;;10.90;4.30;;;;;;;;;;5039041;28;20033;-74
2023/01/31 13:28:34;;;;;;;12.47;4.00;;;;;;;;;;5039753;28;20083;-76
2023/01/31 13:31:02;;;;;;;11.13;4.43;;;;;;;;;;5024612;28;20034;-76
2023/01/31 13:33:47;;;;;;;13.77;3.83;;;;;;;;;;5041537;28;20045;-76
2023/01/31 13:36:16;;;;;;;15.20;4.93;;;;;;;;;;5025328;28;20052;-76
2023/01/31 13:38:43;;;;;;;12.23;4.60;;;;;;;;;;5038212;28;20033;-76
2023/01/31 13:41:29;;;;;;;11.87;4.63;;;;;;;;;;5037286;28;20069;-76
2023/01/31 13:43:56;;;;;;;14.23;5.00;;;;;;;;;;5023016;28;20064;-76
2023/01/31 13:46:36;;;;;;;9.33;4.30;;;;;;;;;;5040566;28;20042;-76
2023/01/31 13:49:09;;;;;;;13.60;4.90;;;;;;;;;;5040518;28;20022;-76
2023/01/31 13:51:44;;;;;;;10.20;4.97;;;;;;;;;;5043704;28;20041;-76
2023/01/31 13:54:10;;;;;;;17.57;5.03;;;;;;;;;;5043390;28;20088;-77
2023/01/31 13:56:37;;;;;;;16.57;5.60;;;;;;;;;;5043126;28;20033;-75
2023/01/31 13:59:07;;;;;;;14.83;5.13;;;;;;;;;;5043925;28;20401;-76
2023/01/31 14:01:41;;;;;;;16.63;5.87;;;;;;;;;;5042189;28;20033;-76
2023/01/31 14:04:11;;;;;;;19.50;6.20;;;;;;;;;;5043351;28;20044;-76
2023/01/31 14:06:55;;;;;;;16.73;6.47;;;;;;;;;;5029127;28;20429;-76
2023/01/31 14:09:24;;;;;;;21.20;7.33;;;;;;;;;;5042166;28;20373;-76
2023/01/31 14:11:50;;;;;;;18.87;7.80;;;;;;;;;;5045272;28;20025;-76
2023/01/31 14:14:40;;;;;;;17.97;6.90;;;;;;;;;;5044152;28;20076;-76
2023/01/31 14:17:12;;;;;;;19.70;8.17;;;;;;;;;;5030827;28;20045;-75
2023/01/31 14:19:41;;;;;;;20.50;7.88;;;;;;;;;;5026329;28;20298;-76
2023/01/31 14:22:13;;;;;;;22.73;8.77;;;;;;;;;;5026151;28;20029;-75
2023/01/31 14:24:48;;;;;;;17.90;8.73;;;;;;;;;;5042736;28;20368;-76
2023/01/31 14:27:21;;;;;;;19.37;7.80;;;;;;;;;;5042414;28;20033;-76
2023/01/31 14:30:07;;;;;;;17.95;8.38;;;;;;;;;;5040346;28;20053;-76
2023/01/31 14:32:33;;;;;;;22.60;7.93;;;;;;;;;;5028094;28;20030;-76
2023/01/31 14:35:02;;;;;;;19.00;8.00;;;;;;;;;;5041932;28;20242;-76
2023/01/31 14:37:33;;;;;;;17.63;8.80;;;;;;;;;;5028063;28;20112;-76
2023/01/31 14:40:02;;;;;;;19.17;7.10;;;;;;;;;;5045221;28;20025;-75
2023/01/31 14:42:38;;;;;;;15.00;7.93;;;;;;;;;;5040772;28;20447;-75
2023/01/31 14:45:04;;;;;;;18.73;7.77;;;;;;;;;;5035497;28;20120;-76
2023/01/31 14:47:30;;;;;;;18.23;7.30;;;;;;;;;;5053763;28;20030;-77
2023/01/31 14:50:06;;;;;;;18.10;7.83;;;;;;;;;;5035624;28;20021;-76
2023/01/31 14:52:38;;;;;;;18.73;7.57;;;;;;;;;;5037918;28;20029;-77
2023/01/31 14:55:20;;;;;;;20.77;6.85;;;;;;;;;;5041693;28;20057;-76